createdAt,value
2022-09-29T00:01:16.931Z,14.67
2022-09-29T00:06:25.133Z,13.70
2022-09-29T00:11:33.402Z,12.10
2022-09-29T00:16:41.199Z,16.10
2022-09-29T00:21:48.957Z,11.57
2022-09-29T00:26:56.886Z,18.83
2022-09-29T00:32:04.641Z,10.93
2022-09-29T00:37:12.857Z,11.87
2022-09-29T00:42:20.943Z,14.20
2022-09-29T00:47:28.804Z,12.33
2022-09-29T00:52:38.819Z,13.03
2022-09-29T00:57:49.694Z,13.17
2022-09-29T01:03:01.621Z,11.93
2022-09-29T01:08:12.539Z,13.60
2022-09-29T01:13:20.684Z,12.60
2022-09-29T01:18:28.507Z,12.73
2022-09-29T01:23:40.332Z,11.37
2022-09-29T01:28:51.293Z,13.27
2022-09-29T01:34:02.144Z,14.40
2022-09-29T01:39:12.987Z,13.47
2022-09-29T01:44:24.723Z,14.53
2022-09-29T01:49:34.189Z,13.07
2022-09-29T01:59:57.899Z,12.40
2022-09-29T02:05:10.175Z,12.47
2022-09-29T02:15:36.501Z,15.67
2022-09-29T02:20:44.825Z,14.17
2022-09-29T02:25:52.606Z,12.40
2022-09-29T02:31:00.654Z,11.47
2022-09-29T02:36:11.566Z,12.03
2022-09-29T02:46:44.684Z,13.73
2022-09-29T02:51:54.805Z,12.80
2022-09-29T02:57:05.923Z,11.93
2022-09-29T03:02:13.994Z,13.47
2022-09-29T03:07:23.517Z,11.77
2022-09-29T03:12:31.439Z,14.93
2022-09-29T03:17:39.832Z,16.50
2022-09-29T03:22:47.597Z,14.67
2022-09-29T03:27:55.919Z,19.60
2022-09-29T03:33:03.681Z,18.73
2022-09-29T03:38:11.524Z,16.57
2022-09-29T03:43:19.373Z,17.27
2022-09-29T03:48:28.769Z,16.63
2022-09-29T03:53:36.815Z,12.30
2022-09-29T03:58:44.622Z,14.63
2022-09-29T04:03:52.810Z,14.80
2022-09-29T04:09:00.655Z,14.77
2022-09-29T04:14:09.019Z,18.43
2022-09-29T04:19:16.922Z,13.63
2022-09-29T04:24:25.774Z,10.27
2022-09-29T04:29:33.554Z,12.67
2022-09-29T04:34:41.393Z,16.53
2022-09-29T04:39:49.542Z,16.27
2022-09-29T04:44:57.717Z,15.57
2022-09-29T04:50:05.843Z,12.43
2022-09-29T04:55:13.748Z,17.43
2022-09-29T05:00:22.269Z,17.33
2022-09-29T05:05:30.107Z,12.57
2022-09-29T05:10:37.895Z,12.27
2022-09-29T05:15:45.660Z,15.17
2022-09-29T05:21:15.784Z,13.80
2022-09-29T05:26:06.118Z,14.53
2022-09-29T05:31:14.547Z,12.87
2022-09-29T05:36:22.875Z,18.47
2022-09-29T05:41:30.664Z,24.07
2022-09-29T05:46:39.854Z,14.30
2022-09-29T05:51:47.911Z,18.60
2022-09-29T05:56:56.421Z,14.47
2022-09-29T06:02:04.396Z,22.30
2022-09-29T06:07:12.309Z,23.33
2022-09-29T06:12:21.913Z,22.23
2022-09-29T06:17:30.171Z,29.43
2022-09-29T06:22:37.960Z,27.87
2022-09-29T06:27:45.751Z,26.80
2022-09-29T06:32:57.089Z,24.50
2022-09-29T06:38:05.001Z,29.67
2022-09-29T06:43:13.470Z,23.07
2022-09-29T06:48:21.933Z,24.43
2022-09-29T06:53:37.525Z,26.43
2022-09-29T06:58:40.682Z,28.33
2022-09-29T07:03:48.477Z,30.30
2022-09-29T07:08:57.145Z,29.47
2022-09-29T07:14:04.998Z,34.03
2022-09-29T07:19:13.612Z,28.30
2022-09-29T07:24:21.691Z,28.47
2022-09-29T07:29:31.112Z,32.40
2022-09-29T07:34:39.010Z,21.73
2022-09-29T07:39:46.853Z,13.13
2022-09-29T07:44:54.991Z,12.17
2022-09-29T07:50:02.847Z,13.37
2022-09-29T07:55:11.075Z,11.87
2022-09-29T08:00:18.889Z,10.80
2022-09-29T08:05:27.917Z,11.13
2022-09-29T08:10:45.054Z,9.00
2022-09-29T08:15:46.718Z,7.50
2022-09-29T08:20:55.876Z,7.43
2022-09-29T08:26:05.704Z,6.87
2022-09-29T08:31:17.094Z,3.80
2022-09-29T08:36:24.925Z,4.37
2022-09-29T08:41:35.920Z,4.40
2022-09-29T08:46:46.168Z,4.80
2022-09-29T08:52:00.159Z,5.07
2022-09-29T08:57:06.515Z,5.13
2022-09-29T09:07:33.275Z,4.43
2022-09-29T09:12:44.298Z,5.10
2022-09-29T09:17:55.460Z,3.77
2022-09-29T09:23:07.597Z,6.27
2022-09-29T09:28:19.071Z,4.47
2022-09-29T09:38:42.282Z,4.00
2022-09-29T09:43:53.189Z,4.43
2022-09-29T09:49:04.182Z,4.80
2022-09-29T09:54:16.610Z,4.20
2022-09-29T09:59:27.555Z,4.83
2022-09-29T10:04:35.795Z,2.90
2022-09-29T10:09:44.657Z,3.00
2022-09-29T10:14:54.926Z,3.20
2022-09-29T10:20:05.958Z,5.10
2022-09-29T10:25:18.945Z,4.40
2022-09-29T10:30:29.419Z,3.50
2022-09-29T10:35:39.492Z,3.27
2022-09-29T10:40:50.401Z,2.73
2022-09-29T10:46:03.271Z,3.40
2022-09-29T10:51:15.303Z,2.10
2022-09-29T10:56:26.489Z,2.47
2022-09-29T11:01:38.002Z,2.23
2022-09-29T11:06:46.467Z,2.17
2022-09-29T11:12:00.266Z,2.50
2022-09-29T11:17:08.511Z,3.87
2022-09-29T11:27:33.834Z,2.70
2022-09-29T11:32:47.013Z,10.53
2022-09-29T11:38:01.667Z,1.43
2022-09-29T11:43:12.597Z,4.37
2022-09-29T11:48:27.216Z,1.67
2022-09-29T11:53:37.788Z,7.03
2022-09-29T11:58:48.783Z,2.20
2022-09-29T12:03:59.793Z,2.00
2022-09-29T12:09:11.229Z,1.30
2022-09-29T12:14:23.244Z,3.87
2022-09-29T12:19:33.090Z,3.93
2022-09-29T12:24:44.475Z,4.43
2022-09-29T12:29:55.044Z,1.67
2022-09-29T12:35:06.358Z,2.97
2022-09-29T12:40:24.075Z,2.23
2022-09-29T12:45:35.606Z,2.00
2022-09-29T12:50:46.777Z,1.80
2022-09-29T12:55:59.402Z,2.37
2022-09-29T13:01:10.439Z,1.80
2022-09-29T13:06:21.976Z,1.70
2022-09-29T13:11:34.026Z,1.80
2022-09-29T13:16:45.078Z,2.70
2022-09-29T13:21:56.617Z,3.37
2022-09-29T13:27:07.916Z,1.77
2022-09-29T13:32:15.942Z,1.47
2022-09-29T13:37:25.121Z,1.80
2022-09-29T13:42:36.501Z,2.10
2022-09-29T13:47:47.489Z,1.70
2022-09-29T13:53:05.507Z,2.07
2022-09-29T13:58:19.732Z,1.70
2022-09-29T14:03:30.430Z,1.67
2022-09-29T14:08:40.946Z,1.50
2022-09-29T14:13:52.037Z,1.57
2022-09-29T14:19:03.063Z,2.37
2022-09-29T14:24:14.976Z,4.10
2022-09-29T14:29:27.814Z,1.13
2022-09-29T14:34:36.425Z,2.37
2022-09-29T14:39:45.870Z,1.13
2022-09-29T14:44:55.472Z,1.60
2022-09-29T14:50:08.064Z,1.50
2022-09-29T14:55:18.960Z,1.97
2022-09-29T15:00:30.353Z,1.43
2022-09-29T15:05:38.548Z,1.97
2022-09-29T15:10:47.273Z,1.20
2022-09-29T15:15:59.002Z,1.83
2022-09-29T15:21:10.227Z,1.67
2022-09-29T15:26:18.535Z,1.43
2022-09-29T15:31:32.877Z,1.67
2022-09-29T15:36:41.375Z,2.37
2022-09-29T15:41:49.359Z,4.50
2022-09-29T15:47:03.592Z,3.10
2022-09-29T15:52:16.249Z,6.87
2022-09-29T15:57:28.819Z,5.77
2022-09-29T16:02:39.800Z,4.13
2022-09-29T16:07:56.289Z,2.17
2022-09-29T16:13:06.707Z,2.53
2022-09-29T16:18:18.772Z,2.10
2022-09-29T16:23:30.774Z,2.70
2022-09-29T16:28:40.734Z,3.47
2022-09-29T16:33:50.475Z,5.37
2022-09-29T16:38:58.396Z,11.40
2022-09-29T16:44:11.813Z,21.10
2022-09-29T16:49:22.945Z,23.10
2022-09-29T16:54:33.153Z,22.17
2022-09-29T16:59:41.040Z,14.10
2022-09-29T17:04:49.402Z,14.90
2022-09-29T17:09:59.377Z,10.83
2022-09-29T17:15:07.753Z,10.37
2022-09-29T17:20:18.270Z,12.53
2022-09-29T17:25:26.209Z,13.30
2022-09-29T17:30:34.897Z,7.30
2022-09-29T17:35:44.717Z,9.90
2022-09-29T17:40:54.826Z,13.90
2022-09-29T17:46:05.632Z,16.97
2022-09-29T17:51:14.892Z,17.40
2022-09-29T17:56:26.259Z,10.07
2022-09-29T18:01:56.181Z,13.90
2022-09-29T18:07:04.524Z,9.50
2022-09-29T18:12:14.196Z,13.87
2022-09-29T18:17:22.174Z,12.63
2022-09-29T18:22:39.800Z,22.60
2022-09-29T18:27:48.251Z,27.82
2022-09-29T18:32:59.170Z,36.60
2022-09-29T18:38:07.151Z,31.83
2022-09-29T18:43:16.668Z,33.30
2022-09-29T18:48:25.989Z,38.83
2022-09-29T18:53:33.941Z,32.93
2022-09-29T18:58:45.474Z,36.73
2022-09-29T19:03:53.875Z,37.97
2022-09-29T19:09:02.396Z,27.37
2022-09-29T19:14:18.692Z,28.17
2022-09-29T19:19:27.138Z,22.80
2022-09-29T19:24:36.047Z,25.40
2022-09-29T19:29:43.959Z,31.27
2022-09-29T19:34:53.653Z,29.23
2022-09-29T19:40:02.437Z,26.53
2022-09-29T19:45:11.019Z,26.40
2022-09-29T19:50:20.575Z,27.13
2022-09-29T19:55:28.674Z,29.73
2022-09-29T20:00:36.990Z,29.63
2022-09-29T20:05:45.301Z,29.03
2022-09-29T20:10:55.133Z,25.97
2022-09-29T20:16:03.262Z,32.23
2022-09-29T20:21:13.947Z,38.47
2022-09-29T20:26:22.106Z,36.63
2022-09-29T20:31:32.332Z,44.93
2022-09-29T20:36:40.798Z,24.80
2022-09-29T20:41:50.684Z,23.97
2022-09-29T20:46:59.851Z,15.23
2022-09-29T20:52:08.676Z,21.37
2022-09-29T20:57:16.840Z,19.90
2022-09-29T21:02:25.046Z,22.40
2022-09-29T21:07:33.398Z,26.02
2022-09-29T21:12:41.560Z,37.47
2022-09-29T21:17:49.648Z,34.33
2022-09-29T21:22:57.567Z,37.63
2022-09-29T21:28:06.361Z,36.00
2022-09-29T21:33:15.026Z,38.03
2022-09-29T21:38:24.487Z,30.53
2022-09-29T21:43:34.388Z,32.40
2022-09-29T21:48:43.294Z,35.40
2022-09-29T21:53:52.829Z,39.40
2022-09-29T21:59:00.798Z,39.13
2022-09-29T22:04:08.874Z,37.20
2022-09-29T22:09:18.789Z,34.60
2022-09-29T22:14:26.942Z,37.80
2022-09-29T22:19:35.709Z,34.67
2022-09-29T22:24:44.133Z,30.57
2022-09-29T22:29:52.632Z,33.30
2022-09-29T22:35:00.591Z,34.40
2022-09-29T22:40:09.366Z,34.67
2022-09-29T22:45:17.301Z,38.43
2022-09-29T22:50:26.829Z,41.77
2022-09-29T22:55:35.045Z,33.83
2022-09-29T23:00:42.988Z,36.40
2022-09-29T23:05:50.855Z,39.13
2022-09-29T23:10:59.100Z,37.30
2022-09-29T23:16:12.820Z,34.70
2022-09-29T23:21:20.313Z,42.30
2022-09-29T23:26:29.453Z,49.57
2022-09-29T23:31:38.728Z,39.73
2022-09-29T23:36:46.812Z,42.30
2022-09-29T23:41:55.103Z,38.07
2022-09-29T23:47:01.663Z,35.80
2022-09-29T23:52:10.078Z,33.27
2022-09-29T23:57:18.111Z,38.87
